createdAt,value
2018-04-29T00:00:44.878Z,965.78
2018-04-29T00:01:44.872Z,965.75
2018-04-29T00:02:44.863Z,965.83
2018-04-29T00:03:44.852Z,965.86
2018-04-29T00:04:44.841Z,965.71
2018-04-29T00:05:44.837Z,965.70
2018-04-29T00:06:44.827Z,965.68
2018-04-29T00:07:44.818Z,965.64
2018-04-29T00:08:44.811Z,965.63
2018-04-29T00:09:44.805Z,965.66
2018-04-29T00:10:44.796Z,965.60
2018-04-29T00:11:44.785Z,965.57
2018-04-29T00:12:44.777Z,965.54
2018-04-29T00:13:44.768Z,965.52
2018-04-29T00:14:44.762Z,965.49
2018-04-29T00:15:44.753Z,965.53
2018-04-29T00:16:44.743Z,965.55
2018-04-29T00:17:44.735Z,965.51
2018-04-29T00:18:44.729Z,965.50
2018-04-29T00:19:44.719Z,965.51
2018-04-29T00:20:44.714Z,965.50
2018-04-29T00:21:44.703Z,965.57
2018-04-29T00:22:44.698Z,965.50
2018-04-29T00:23:44.684Z,965.51
2018-04-29T00:24:44.675Z,965.49
2018-04-29T00:25:44.668Z,965.52
2018-04-29T00:26:44.662Z,965.45
2018-04-29T00:27:44.655Z,965.50
2018-04-29T00:28:44.647Z,965.47
2018-04-29T00:29:44.636Z,965.41
2018-04-29T00:30:44.629Z,965.41
2018-04-29T00:31:44.616Z,965.42
2018-04-29T00:32:44.609Z,965.37
2018-04-29T00:33:44.607Z,965.38
2018-04-29T00:34:44.598Z,965.37
2018-04-29T00:35:44.584Z,965.38
2018-04-29T00:36:44.576Z,965.40
2018-04-29T00:37:44.568Z,965.39
2018-04-29T00:38:44.561Z,965.41
2018-04-29T00:39:44.554Z,965.38
2018-04-29T00:40:44.543Z,965.42
2018-04-29T00:41:44.537Z,965.44
2018-04-29T00:42:44.528Z,965.47
2018-04-29T00:43:44.517Z,965.44
2018-04-29T00:44:44.510Z,965.40
2018-04-29T00:45:44.506Z,965.37
2018-04-29T00:46:44.494Z,965.32
2018-04-29T00:47:44.485Z,965.30
2018-04-29T00:48:44.557Z,965.29
2018-04-29T00:49:44.476Z,965.31
2018-04-29T00:50:44.461Z,965.27
2018-04-29T00:51:44.457Z,965.28
2018-04-29T00:52:44.447Z,965.26
2018-04-29T00:53:44.436Z,965.26
2018-04-29T00:54:44.438Z,965.26
2018-04-29T00:55:44.421Z,965.30
2018-04-29T00:56:44.412Z,965.34
2018-04-29T00:57:44.413Z,965.35
2018-04-29T00:58:44.400Z,965.32
2018-04-29T00:59:44.387Z,965.37
2018-04-29T01:00:44.379Z,965.33
2018-04-29T01:01:44.372Z,965.30
2018-04-29T01:02:44.366Z,965.27
2018-04-29T01:03:44.356Z,965.22
2018-04-29T01:04:44.349Z,965.26
2018-04-29T01:05:44.347Z,965.29
2018-04-29T01:06:44.332Z,965.33
2018-04-29T01:07:44.322Z,965.36
2018-04-29T01:08:44.317Z,965.35
2018-04-29T01:09:44.310Z,965.35
2018-04-29T01:10:44.301Z,965.36
2018-04-29T01:11:44.293Z,965.30
2018-04-29T01:12:44.284Z,965.31
2018-04-29T01:13:44.278Z,965.30
2018-04-29T01:14:44.270Z,965.33
2018-04-29T01:15:44.260Z,965.36
2018-04-29T01:16:44.252Z,965.34
2018-04-29T01:17:44.244Z,965.34
2018-04-29T01:18:44.239Z,965.33
2018-04-29T01:19:44.229Z,965.36
2018-04-29T01:20:44.223Z,965.37
2018-04-29T01:21:44.213Z,965.36
2018-04-29T01:22:44.207Z,965.31
2018-04-29T01:23:44.198Z,965.30
2018-04-29T01:24:44.191Z,965.30
2018-04-29T01:25:44.187Z,965.25
2018-04-29T01:26:44.176Z,965.23
2018-04-29T01:27:44.166Z,965.22
2018-04-29T01:28:44.160Z,965.25
2018-04-29T01:29:44.152Z,965.23
2018-04-29T01:30:44.143Z,965.22
2018-04-29T01:31:44.134Z,965.23
2018-04-29T01:32:44.129Z,965.18
2018-04-29T01:33:44.120Z,965.20
2018-04-29T01:34:44.110Z,965.17
2018-04-29T01:35:44.103Z,965.15
2018-04-29T01:36:44.093Z,965.17
2018-04-29T01:37:44.086Z,965.16
2018-04-29T01:38:44.079Z,965.17
2018-04-29T01:39:44.070Z,965.18
2018-04-29T01:40:44.065Z,965.21
2018-04-29T01:41:44.056Z,965.21
2018-04-29T01:42:44.056Z,965.20
2018-04-29T01:43:44.041Z,965.22
2018-04-29T01:44:44.032Z,965.23
2018-04-29T01:45:44.022Z,965.23
2018-04-29T01:46:44.016Z,965.23
2018-04-29T01:47:44.006Z,965.20
2018-04-29T01:48:43.998Z,965.18
2018-04-29T01:49:43.992Z,965.18
2018-04-29T01:50:43.980Z,965.15
2018-04-29T01:51:44.073Z,965.15
2018-04-29T01:52:43.967Z,965.17
2018-04-29T01:53:43.960Z,965.16
2018-04-29T01:54:43.952Z,965.14
2018-04-29T01:55:43.942Z,965.18
2018-04-29T01:56:43.933Z,965.17
2018-04-29T01:57:43.926Z,965.21
2018-04-29T01:58:43.919Z,965.23
2018-04-29T01:59:43.908Z,965.18
2018-04-29T02:00:43.902Z,965.17
2018-04-29T02:01:43.898Z,965.17
2018-04-29T02:02:43.883Z,965.14
2018-04-29T02:03:43.876Z,965.16
2018-04-29T02:04:43.868Z,965.15
2018-04-29T02:05:43.864Z,965.15
2018-04-29T02:06:43.852Z,965.14
2018-04-29T02:07:43.844Z,965.14
2018-04-29T02:08:43.835Z,965.17
2018-04-29T02:09:43.827Z,965.17
2018-04-29T02:10:43.819Z,965.20
2018-04-29T02:11:43.812Z,965.17
2018-04-29T02:12:43.803Z,965.14
2018-04-29T02:13:43.795Z,965.13
2018-04-29T02:14:43.786Z,965.09
2018-04-29T02:15:43.777Z,965.01
2018-04-29T02:16:43.769Z,964.98
2018-04-29T02:17:43.760Z,964.98
2018-04-29T02:18:43.754Z,964.96
2018-04-29T02:19:43.750Z,964.97
2018-04-29T02:20:43.737Z,964.97
2018-04-29T02:21:43.727Z,964.93
2018-04-29T02:22:43.719Z,964.93
2018-04-29T02:23:43.712Z,964.89
2018-04-29T02:24:43.703Z,964.89
2018-04-29T02:25:43.693Z,964.87
2018-04-29T02:26:43.685Z,964.85
2018-04-29T02:27:43.686Z,964.82
2018-04-29T02:28:43.670Z,964.76
2018-04-29T02:29:43.660Z,964.72
2018-04-29T02:30:43.656Z,964.79
2018-04-29T02:31:43.641Z,964.78
2018-04-29T02:32:43.636Z,964.83
2018-04-29T02:33:43.626Z,964.88
2018-04-29T02:34:43.618Z,964.82
2018-04-29T02:35:43.609Z,964.86
2018-04-29T02:36:43.602Z,964.80
2018-04-29T02:37:43.594Z,964.84
2018-04-29T02:38:43.583Z,964.84
2018-04-29T02:39:43.573Z,964.79
2018-04-29T02:40:43.571Z,964.78
2018-04-29T02:41:43.560Z,964.76
2018-04-29T02:42:43.555Z,964.77
2018-04-29T02:43:43.539Z,964.75
2018-04-29T02:44:43.532Z,964.73
2018-04-29T02:45:43.524Z,964.70
2018-04-29T02:46:43.515Z,964.74
2018-04-29T02:47:43.508Z,964.75
2018-04-29T02:48:43.501Z,964.75
2018-04-29T02:49:43.489Z,964.78
2018-04-29T02:50:43.480Z,964.80
2018-04-29T02:51:43.473Z,964.74
2018-04-29T02:52:43.465Z,964.73
2018-04-29T02:53:43.456Z,964.73
2018-04-29T02:54:43.446Z,964.65
2018-04-29T02:55:43.440Z,964.63
2018-04-29T02:56:43.428Z,964.59
2018-04-29T02:57:43.432Z,964.57
2018-04-29T02:58:43.412Z,964.59
2018-04-29T02:59:43.405Z,964.56
2018-04-29T03:00:43.397Z,964.52
2018-04-29T03:01:43.391Z,964.54
2018-04-29T03:02:43.384Z,964.57
2018-04-29T03:03:43.371Z,964.55
2018-04-29T03:04:43.360Z,964.59
2018-04-29T03:05:43.352Z,964.61
2018-04-29T03:06:43.343Z,964.58
2018-04-29T03:07:43.335Z,964.61
2018-04-29T03:08:43.328Z,964.58
2018-04-29T03:09:43.328Z,964.56
2018-04-29T03:10:43.312Z,964.60
2018-04-29T03:11:43.303Z,964.65
2018-04-29T03:12:43.293Z,964.63
2018-04-29T03:13:43.284Z,964.58
2018-04-29T03:14:43.278Z,964.60
2018-04-29T03:15:43.269Z,964.60
2018-04-29T03:16:43.260Z,964.60
2018-04-29T03:17:43.252Z,964.56
2018-04-29T03:18:43.243Z,964.58
2018-04-29T03:19:43.233Z,964.55
2018-04-29T03:20:43.227Z,964.52
2018-04-29T03:21:43.217Z,964.51
2018-04-29T03:22:43.209Z,964.52
2018-04-29T03:23:43.206Z,964.52
2018-04-29T03:24:43.198Z,964.54
2018-04-29T03:25:43.184Z,964.52
2018-04-29T03:26:43.175Z,964.54
2018-04-29T03:27:43.165Z,964.56
2018-04-29T03:28:43.159Z,964.56
2018-04-29T03:29:43.153Z,964.61
2018-04-29T03:30:43.140Z,964.61
2018-04-29T03:31:43.133Z,964.56
2018-04-29T03:32:43.124Z,964.59
2018-04-29T03:33:43.125Z,964.55
2018-04-29T03:34:43.106Z,964.55
2018-04-29T03:35:43.098Z,964.57
2018-04-29T03:36:43.092Z,964.58
2018-04-29T03:37:43.081Z,964.60
2018-04-29T03:38:43.075Z,964.64
2018-04-29T03:39:43.063Z,964.63
2018-04-29T03:40:43.056Z,964.61
2018-04-29T03:41:43.047Z,964.60
2018-04-29T03:42:43.037Z,964.64
2018-04-29T03:43:43.032Z,964.59
2018-04-29T03:44:43.027Z,964.61
2018-04-29T03:45:43.013Z,964.60
2018-04-29T03:46:43.002Z,964.64
2018-04-29T03:47:42.997Z,964.62
2018-04-29T03:48:42.985Z,964.58
2018-04-29T03:49:42.979Z,964.59
2018-04-29T03:50:42.967Z,964.51
2018-04-29T03:51:42.962Z,964.43
2018-04-29T03:52:42.952Z,964.41
2018-04-29T03:53:42.944Z,964.47
2018-04-29T03:54:42.935Z,964.48
2018-04-29T03:55:42.925Z,964.49
2018-04-29T03:56:42.917Z,964.52
2018-04-29T03:57:42.908Z,964.49
2018-04-29T03:58:42.901Z,964.51
2018-04-29T03:59:42.894Z,964.56
2018-04-29T04:00:42.882Z,964.48
2018-04-29T04:01:51.283Z,964.51
2018-04-29T04:02:42.881Z,964.48
2018-04-29T04:03:42.860Z,964.51
2018-04-29T04:04:42.848Z,964.45
2018-04-29T04:05:42.840Z,964.42
2018-04-29T04:06:42.829Z,964.45
2018-04-29T04:07:42.823Z,964.42
2018-04-29T04:08:42.808Z,964.41
2018-04-29T04:09:42.807Z,964.37
2018-04-29T04:10:42.794Z,964.38
2018-04-29T04:11:42.783Z,964.35
2018-04-29T04:12:42.849Z,964.33
2018-04-29T04:13:42.766Z,964.32
2018-04-29T04:14:42.757Z,964.34
2018-04-29T04:15:42.746Z,964.38
2018-04-29T04:16:42.738Z,964.46
2018-04-29T04:17:42.728Z,964.43
2018-04-29T04:18:42.719Z,964.38
2018-04-29T04:19:42.711Z,964.45
2018-04-29T04:20:42.701Z,964.42
2018-04-29T04:21:42.693Z,964.48
2018-04-29T04:22:42.687Z,964.46
2018-04-29T04:23:42.705Z,964.44
2018-04-29T04:24:42.670Z,964.43
2018-04-29T04:25:42.656Z,964.44
2018-04-29T04:26:42.646Z,964.44
2018-04-29T04:27:42.637Z,964.46
2018-04-29T04:28:42.629Z,964.39
2018-04-29T04:29:42.622Z,964.42
2018-04-29T04:30:42.614Z,964.41
2018-04-29T04:31:42.600Z,964.42
2018-04-29T04:32:42.592Z,964.42
2018-04-29T04:33:42.581Z,964.43
2018-04-29T04:34:42.571Z,964.45
2018-04-29T04:35:42.564Z,964.41
2018-04-29T04:36:42.552Z,964.48
2018-04-29T04:37:42.543Z,964.50
2018-04-29T04:38:42.536Z,964.44
2018-04-29T04:39:42.526Z,964.44
2018-04-29T04:40:42.515Z,964.41
2018-04-29T04:41:42.508Z,964.48
2018-04-29T04:42:42.496Z,964.45
2018-04-29T04:43:42.486Z,964.44
2018-04-29T04:44:42.476Z,964.45
2018-04-29T04:45:42.469Z,964.45
2018-04-29T04:46:42.459Z,964.47
2018-04-29T04:47:42.449Z,964.46
2018-04-29T04:49:18.871Z,964.53
2018-04-29T04:49:42.431Z,964.49
2018-04-29T04:50:42.524Z,964.44
2018-04-29T04:51:42.413Z,964.46
2018-04-29T04:52:42.405Z,964.51
2018-04-29T04:53:42.395Z,964.54
2018-04-29T04:54:42.394Z,964.51
2018-04-29T04:55:42.377Z,964.52
2018-04-29T04:56:42.369Z,964.46
2018-04-29T04:57:42.361Z,964.67
2018-04-29T04:58:42.353Z,964.54
2018-04-29T04:59:42.344Z,964.50
2018-04-29T05:00:42.336Z,964.52
2018-04-29T05:01:42.331Z,964.50
2018-04-29T05:02:42.323Z,964.61
2018-04-29T05:03:42.312Z,964.58
2018-04-29T05:04:42.308Z,964.54
2018-04-29T05:05:42.297Z,964.63
2018-04-29T05:06:42.289Z,964.62
2018-04-29T05:07:42.283Z,964.52
2018-04-29T05:08:42.275Z,964.58
2018-04-29T05:09:42.280Z,964.49
2018-04-29T05:10:42.261Z,964.57
2018-04-29T05:11:42.252Z,964.61
2018-04-29T05:12:42.248Z,964.59
2018-04-29T05:13:42.250Z,964.43
2018-04-29T05:14:42.230Z,964.50
2018-04-29T05:15:42.220Z,964.44
2018-04-29T05:16:42.212Z,964.57
2018-04-29T05:17:42.205Z,964.61
2018-04-29T05:18:42.197Z,964.56
2018-04-29T05:19:42.191Z,964.56
2018-04-29T05:20:42.184Z,964.50
2018-04-29T05:21:42.185Z,964.46
2018-04-29T05:22:42.168Z,964.46
2018-04-29T05:23:42.159Z,964.62
2018-04-29T05:24:42.155Z,964.52
2018-04-29T05:25:42.147Z,964.44
2018-04-29T05:26:42.138Z,964.48
2018-04-29T05:27:42.127Z,964.47
2018-04-29T05:28:42.125Z,964.41
2018-04-29T05:29:42.115Z,964.41
2018-04-29T05:30:42.106Z,964.51
2018-04-29T05:31:42.096Z,964.48
2018-04-29T05:32:42.090Z,964.55
2018-04-29T05:33:42.082Z,964.54
2018-04-29T05:34:42.078Z,964.51
2018-04-29T05:35:42.065Z,964.47
2018-04-29T05:36:42.060Z,964.43
2018-04-29T05:37:42.051Z,964.54
2018-04-29T05:38:42.047Z,964.49
2018-04-29T05:39:42.035Z,964.52
2018-04-29T05:40:42.029Z,964.50
2018-04-29T05:41:42.021Z,964.56
2018-04-29T05:42:42.012Z,964.67
2018-04-29T05:43:42.006Z,964.41
2018-04-29T05:44:41.998Z,964.56
2018-04-29T05:45:41.992Z,964.46
2018-04-29T05:46:41.982Z,964.46
2018-04-29T05:47:41.974Z,964.67
2018-04-29T05:48:41.968Z,964.52
2018-04-29T05:49:41.962Z,964.56
2018-04-29T05:50:41.953Z,964.53
2018-04-29T05:51:41.947Z,964.57
2018-04-29T05:52:41.939Z,964.61
2018-04-29T05:53:41.930Z,964.57
2018-04-29T05:54:41.924Z,964.48
2018-04-29T05:55:41.918Z,964.41
2018-04-29T05:56:41.909Z,964.46
2018-04-29T05:57:41.902Z,964.51
2018-04-29T05:58:41.897Z,964.31
2018-04-29T05:59:41.891Z,964.33
2018-04-29T06:00:41.886Z,964.28
2018-04-29T06:01:41.873Z,964.31
2018-04-29T06:02:41.865Z,964.39
2018-04-29T06:03:41.859Z,964.33
2018-04-29T06:04:41.849Z,964.22
2018-04-29T06:05:41.840Z,964.24
2018-04-29T06:06:41.836Z,964.36
2018-04-29T06:07:41.825Z,964.36
2018-04-29T06:08:41.818Z,964.31
2018-04-29T06:09:41.813Z,964.42
2018-04-29T06:10:41.804Z,964.50
2018-04-29T06:11:41.795Z,964.21
2018-04-29T06:12:41.788Z,964.28
2018-04-29T06:13:41.780Z,964.27
2018-04-29T06:14:41.774Z,964.31
2018-04-29T06:15:41.766Z,964.23
2018-04-29T06:16:41.762Z,964.23
2018-04-29T06:17:41.751Z,964.38
2018-04-29T06:18:41.745Z,964.27
2018-04-29T06:19:41.735Z,964.25
2018-04-29T06:20:41.728Z,964.25
2018-04-29T06:21:41.721Z,964.33
2018-04-29T06:22:41.714Z,964.19
2018-04-29T06:23:41.706Z,964.32
2018-04-29T06:24:41.698Z,964.29
2018-04-29T06:25:41.691Z,964.19
2018-04-29T06:26:41.681Z,964.13
2018-04-29T06:27:41.676Z,964.05
2018-04-29T06:28:41.669Z,964.10
2018-04-29T06:29:41.658Z,964.23
2018-04-29T06:30:41.651Z,964.08
2018-04-29T06:31:41.645Z,964.09
2018-04-29T06:32:41.637Z,964.16
2018-04-29T06:33:41.630Z,964.09
2018-04-29T06:34:41.622Z,964.04
2018-04-29T06:35:41.616Z,964.01
2018-04-29T06:36:41.607Z,964.00
2018-04-29T06:37:41.600Z,963.95
2018-04-29T06:38:41.602Z,963.98
2018-04-29T06:39:41.588Z,963.95
2018-04-29T06:40:41.577Z,963.93
2018-04-29T06:41:41.568Z,963.95
2018-04-29T06:42:41.560Z,963.91
2018-04-29T06:43:41.554Z,963.84
2018-04-29T06:44:41.546Z,963.94
2018-04-29T06:45:41.537Z,963.82
2018-04-29T06:46:41.531Z,963.82
2018-04-29T06:47:41.524Z,963.75
2018-04-29T06:48:41.515Z,963.72
2018-04-29T06:49:41.514Z,963.67
2018-04-29T06:50:41.504Z,963.78
2018-04-29T06:51:41.495Z,963.67
2018-04-29T06:52:41.488Z,963.67
2018-04-29T06:53:41.480Z,963.70
2018-04-29T06:54:41.477Z,963.75
2018-04-29T06:55:41.466Z,963.87
2018-04-29T06:56:41.459Z,963.84
2018-04-29T06:57:41.451Z,963.98
2018-04-29T06:58:41.445Z,963.85
2018-04-29T06:59:41.437Z,963.81
2018-04-29T07:00:41.440Z,963.83
2018-04-29T07:01:41.424Z,963.70
2018-04-29T07:02:41.414Z,963.75
2018-04-29T07:03:41.409Z,963.75
2018-04-29T07:04:41.401Z,963.67
2018-04-29T07:05:41.394Z,963.75
2018-04-29T07:06:41.387Z,963.68
2018-04-29T07:07:41.380Z,963.60
2018-04-29T07:08:41.373Z,963.61
2018-04-29T07:09:41.366Z,963.81
2018-04-29T07:10:41.361Z,963.77
2018-04-29T07:11:41.351Z,963.63
2018-04-29T07:12:41.345Z,963.56
2018-04-29T07:13:41.339Z,963.70
2018-04-29T07:14:41.331Z,963.55
2018-04-29T07:15:41.325Z,963.52
2018-04-29T07:16:41.318Z,963.59
2018-04-29T07:17:41.310Z,963.49
2018-04-29T07:18:41.303Z,963.62
2018-04-29T07:19:41.303Z,963.62
2018-04-29T07:20:41.289Z,963.56
2018-04-29T07:21:41.280Z,963.61
2018-04-29T07:22:41.273Z,963.57
2018-04-29T07:23:41.270Z,963.69
2018-04-29T07:24:41.261Z,963.73
2018-04-29T07:25:41.256Z,963.70
2018-04-29T07:26:41.248Z,963.52
2018-04-29T07:27:41.241Z,963.72
2018-04-29T07:28:41.273Z,963.63
2018-04-29T07:29:41.228Z,963.53
2018-04-29T07:30:41.221Z,963.39
2018-04-29T07:31:41.213Z,963.43
2018-04-29T07:32:41.210Z,963.49
2018-04-29T07:33:41.200Z,963.55
2018-04-29T07:34:41.195Z,963.57
2018-04-29T07:35:41.185Z,963.45
2018-04-29T07:36:41.181Z,963.52
2018-04-29T07:37:41.173Z,963.58
2018-04-29T07:38:41.168Z,963.49
2018-04-29T07:39:41.158Z,963.41
2018-04-29T07:40:41.153Z,963.47
2018-04-29T07:41:41.157Z,963.62
2018-04-29T07:42:41.217Z,963.52
2018-04-29T07:43:41.130Z,963.45
2018-04-29T07:44:41.127Z,963.50
2018-04-29T07:45:41.120Z,963.48
2018-04-29T07:46:41.114Z,963.53
2018-04-29T07:47:41.105Z,963.44
2018-04-29T07:48:41.097Z,963.42
2018-04-29T07:49:41.101Z,963.36
2018-04-29T07:50:41.085Z,963.40
2018-04-29T07:51:41.080Z,963.31
2018-04-29T07:52:41.129Z,963.38
2018-04-29T07:53:41.067Z,963.38
2018-04-29T07:54:41.060Z,963.40
2018-04-29T07:55:41.056Z,963.40
2018-04-29T07:56:41.047Z,963.36
2018-04-29T07:57:41.042Z,963.31
2018-04-29T07:58:41.038Z,963.33
2018-04-29T07:59:41.040Z,963.40
2018-04-29T08:00:41.059Z,963.33
2018-04-29T08:01:41.020Z,963.23
2018-04-29T08:02:41.011Z,963.20
2018-04-29T08:03:41.006Z,963.22
2018-04-29T08:04:40.997Z,963.20
2018-04-29T08:05:40.995Z,963.14
2018-04-29T08:06:41.026Z,963.13
2018-04-29T08:07:40.984Z,963.09
2018-04-29T08:08:40.975Z,963.24
2018-04-29T08:09:40.971Z,963.13
2018-04-29T08:10:40.966Z,963.05
2018-04-29T08:11:40.960Z,963.18
2018-04-29T08:12:40.952Z,963.26
2018-04-29T08:13:40.948Z,963.15
2018-04-29T08:14:40.943Z,963.10
2018-04-29T08:15:40.975Z,963.14
2018-04-29T08:16:40.932Z,963.01
2018-04-29T08:17:40.924Z,963.00
2018-04-29T08:18:40.922Z,962.99
2018-04-29T08:19:40.913Z,962.96
2018-04-29T08:20:40.907Z,963.02
2018-04-29T08:21:40.904Z,962.99
2018-04-29T08:22:40.954Z,962.94
2018-04-29T08:23:40.891Z,962.95
2018-04-29T08:24:40.884Z,962.98
2018-04-29T08:25:40.881Z,962.93
2018-04-29T08:26:40.875Z,962.94
2018-04-29T08:27:40.871Z,962.98
2018-04-29T08:28:40.866Z,963.10
2018-04-29T08:29:40.859Z,962.96
2018-04-29T08:30:40.854Z,963.04
2018-04-29T08:31:40.849Z,963.06
2018-04-29T08:32:40.845Z,962.98
2018-04-29T08:33:40.838Z,962.97
2018-04-29T08:34:40.834Z,962.98
2018-04-29T08:35:40.828Z,963.01
2018-04-29T08:36:40.821Z,963.05
2018-04-29T08:37:40.824Z,962.98
2018-04-29T08:38:40.813Z,962.94
2018-04-29T08:39:40.810Z,962.99
2018-04-29T08:40:40.803Z,962.99
2018-04-29T08:41:40.797Z,963.01
2018-04-29T08:42:40.795Z,962.99
2018-04-29T08:43:40.788Z,962.99
2018-04-29T08:44:40.784Z,962.93
2018-04-29T08:45:40.778Z,962.92
2018-04-29T08:46:40.774Z,962.87
2018-04-29T08:47:40.767Z,962.95
2018-04-29T08:48:40.819Z,962.93
2018-04-29T08:49:40.761Z,962.92
2018-04-29T08:50:40.757Z,962.91
2018-04-29T08:51:40.750Z,962.94
2018-04-29T08:52:40.747Z,962.93
2018-04-29T08:53:40.744Z,962.91
2018-04-29T08:54:40.736Z,962.94
2018-04-29T08:55:40.735Z,962.91
2018-04-29T08:56:40.734Z,962.95
2018-04-29T08:57:40.724Z,962.89
2018-04-29T08:58:40.721Z,962.94
2018-04-29T08:59:40.718Z,962.90
2018-04-29T09:00:40.713Z,962.95
2018-04-29T09:01:40.776Z,962.89
2018-04-29T09:02:40.705Z,962.83
2018-04-29T09:03:40.771Z,962.74
2018-04-29T09:04:40.695Z,962.76
2018-04-29T09:05:40.690Z,962.74
2018-04-29T09:06:40.688Z,962.70
2018-04-29T09:07:40.682Z,962.68
2018-04-29T09:08:40.678Z,962.67
2018-04-29T09:09:40.678Z,962.72
2018-04-29T09:10:40.675Z,962.63
2018-04-29T09:11:40.668Z,962.67
2018-04-29T09:12:40.664Z,962.66
2018-04-29T09:13:40.662Z,962.66
2018-04-29T09:14:40.656Z,962.70
2018-04-29T09:15:40.652Z,962.71
2018-04-29T09:16:40.649Z,962.58
2018-04-29T09:17:40.694Z,962.64
2018-04-29T09:18:40.641Z,962.64
2018-04-29T09:19:40.638Z,962.64
2018-04-29T09:20:40.636Z,962.65
2018-04-29T09:21:40.640Z,962.63
2018-04-29T09:22:40.630Z,962.60
2018-04-29T09:23:40.628Z,962.54
2018-04-29T09:24:40.623Z,962.55
2018-04-29T09:25:40.620Z,962.63
2018-04-29T09:26:40.617Z,962.56
2018-04-29T09:27:40.612Z,962.57
2018-04-29T09:28:40.610Z,962.58
2018-04-29T09:29:40.612Z,962.53
2018-04-29T09:30:40.604Z,962.54
2018-04-29T09:31:40.609Z,962.51
2018-04-29T09:32:40.599Z,962.47
2018-04-29T09:33:40.603Z,962.48
2018-04-29T09:34:40.592Z,962.49
2018-04-29T09:35:40.593Z,962.46
2018-04-29T09:36:40.590Z,962.44
2018-04-29T09:37:40.589Z,962.42
2018-04-29T09:38:40.584Z,962.38
2018-04-29T09:39:40.634Z,962.48
2018-04-29T09:40:40.578Z,962.43
2018-04-29T09:41:40.573Z,962.34
2018-04-29T09:42:40.571Z,962.46
2018-04-29T09:43:40.580Z,962.48
2018-04-29T09:44:40.569Z,962.42
2018-04-29T09:45:40.563Z,962.40
2018-04-29T09:46:40.558Z,962.42
2018-04-29T09:47:40.561Z,962.39
2018-04-29T09:48:40.598Z,962.40
2018-04-29T09:49:40.551Z,962.33
2018-04-29T09:50:40.550Z,962.36
2018-04-29T09:51:40.547Z,962.37
2018-04-29T09:52:40.543Z,962.30
2018-04-29T09:53:40.541Z,962.31
2018-04-29T09:54:40.537Z,962.26
2018-04-29T09:55:40.535Z,962.27
2018-04-29T09:56:40.530Z,962.24
2018-04-29T09:57:40.529Z,962.19
2018-04-29T09:58:40.525Z,962.19
2018-04-29T09:59:40.521Z,962.21
2018-04-29T10:00:40.519Z,962.21
2018-04-29T10:01:40.518Z,962.17
2018-04-29T10:02:40.513Z,962.18
2018-04-29T10:03:40.508Z,962.08
2018-04-29T10:04:40.506Z,962.08
2018-04-29T10:05:40.503Z,962.11
2018-04-29T10:06:40.504Z,962.11
2018-04-29T10:07:40.497Z,962.10
2018-04-29T10:08:40.495Z,962.07
2018-04-29T10:09:40.492Z,962.07
2018-04-29T10:10:40.488Z,962.10
2018-04-29T10:11:40.486Z,962.07
2018-04-29T10:12:40.483Z,962.05
2018-04-29T10:13:40.481Z,962.02
2018-04-29T10:14:40.487Z,962.02
2018-04-29T10:15:40.477Z,962.01
2018-04-29T10:16:40.474Z,962.04
2018-04-29T10:17:40.473Z,962.04
2018-04-29T10:18:40.472Z,961.97
2018-04-29T10:19:40.466Z,961.92
2018-04-29T10:20:40.465Z,961.95
2018-04-29T10:21:40.461Z,961.96
2018-04-29T10:22:40.568Z,961.89
2018-04-29T10:23:40.458Z,961.89
2018-04-29T10:24:40.491Z,961.87
2018-04-29T10:25:40.452Z,961.82
2018-04-29T10:26:40.454Z,961.85
2018-04-29T10:27:40.448Z,961.80
2018-04-29T10:28:40.450Z,961.74
2018-04-29T10:29:40.442Z,961.76
2018-04-29T10:30:40.441Z,961.73
2018-04-29T10:31:40.441Z,961.69
2018-04-29T10:32:40.486Z,961.67
2018-04-29T10:33:40.435Z,961.77
2018-04-29T10:34:40.430Z,961.73
2018-04-29T10:35:40.432Z,961.72
2018-04-29T10:36:40.429Z,961.63
2018-04-29T10:37:40.424Z,961.63
2018-04-29T10:38:40.423Z,961.61
2018-04-29T10:39:40.421Z,961.61
2018-04-29T10:40:40.421Z,961.62
2018-04-29T10:41:40.419Z,961.68
2018-04-29T10:42:40.414Z,961.65
2018-04-29T10:43:40.412Z,961.59
2018-04-29T10:44:40.411Z,961.61
2018-04-29T10:45:40.409Z,961.56
2018-04-29T10:46:40.405Z,961.59
2018-04-29T10:47:40.407Z,961.49
2018-04-29T10:48:40.401Z,961.50
2018-04-29T10:49:40.400Z,961.46
2018-04-29T10:50:40.399Z,961.43
2018-04-29T10:51:40.394Z,961.45
2018-04-29T10:52:40.393Z,961.43
2018-04-29T10:53:40.393Z,961.46
2018-04-29T10:54:40.392Z,961.35
2018-04-29T10:55:40.387Z,961.31
2018-04-29T10:56:40.437Z,961.28
2018-04-29T10:57:40.386Z,961.31
2018-04-29T10:58:40.427Z,961.30
2018-04-29T10:59:40.381Z,961.32
2018-04-29T11:00:40.377Z,961.32
2018-04-29T11:03:40.577Z,961.27
2018-04-29T11:04:40.373Z,961.22
2018-04-29T11:05:40.370Z,961.25
2018-04-29T11:06:40.369Z,961.22
2018-04-29T11:07:40.364Z,961.19
2018-04-29T11:08:40.363Z,961.18
2018-04-29T11:09:40.428Z,961.16
2018-04-29T11:10:40.370Z,961.10
2018-04-29T11:11:40.443Z,961.16
2018-04-29T11:12:40.371Z,961.15
2018-04-29T11:13:40.363Z,961.11
2018-04-29T11:14:40.355Z,961.10
2018-04-29T11:15:40.355Z,961.10
2018-04-29T11:16:40.355Z,961.06
2018-04-29T11:17:40.354Z,961.04
2018-04-29T11:18:40.350Z,961.05
2018-04-29T11:19:40.353Z,961.07
2018-04-29T11:20:40.345Z,961.08
2018-04-29T11:21:40.343Z,961.09
2018-04-29T11:22:40.350Z,960.99
2018-04-29T11:23:40.338Z,961.01
2018-04-29T11:24:40.342Z,960.99
2018-04-29T11:25:40.338Z,960.96
2018-04-29T11:26:40.337Z,960.91
2018-04-29T11:27:40.336Z,960.92
2018-04-29T11:28:40.418Z,960.88
2018-04-29T11:29:40.334Z,960.86
2018-04-29T11:30:40.328Z,960.86
2018-04-29T11:31:40.336Z,960.84
2018-04-29T11:32:40.327Z,960.81
2018-04-29T11:33:40.325Z,960.83
2018-04-29T11:34:40.329Z,960.77
2018-04-29T11:35:40.324Z,960.76
2018-04-29T11:36:40.323Z,960.76
2018-04-29T11:37:40.330Z,960.69
2018-04-29T11:38:40.321Z,960.72
2018-04-29T11:39:40.323Z,960.72
2018-04-29T11:40:40.322Z,960.68
2018-04-29T11:41:40.318Z,960.67
2018-04-29T11:42:40.319Z,960.61
2018-04-29T11:43:40.314Z,960.64
2018-04-29T11:44:40.315Z,960.59
2018-04-29T11:45:40.313Z,960.66
2018-04-29T11:46:40.316Z,960.62
2018-04-29T11:47:40.316Z,960.61
2018-04-29T11:48:40.312Z,960.61
2018-04-29T11:49:40.312Z,960.59
2018-04-29T11:50:40.313Z,960.58
2018-04-29T11:51:40.310Z,960.61
2018-04-29T11:52:40.313Z,960.57
2018-04-29T11:53:40.311Z,960.60
2018-04-29T11:54:40.311Z,960.64
2018-04-29T11:55:40.313Z,960.50
2018-04-29T11:56:40.309Z,960.51
2018-04-29T11:57:40.324Z,960.48
2018-04-29T11:58:40.308Z,960.44
2018-04-29T11:59:40.305Z,960.41
2018-04-29T12:00:40.304Z,960.42
2018-04-29T12:01:40.310Z,960.37
2018-04-29T12:02:40.473Z,960.37
2018-04-29T12:03:40.304Z,960.36
2018-04-29T12:04:40.302Z,960.33
2018-04-29T12:05:40.307Z,960.34
2018-04-29T12:06:40.300Z,960.28
2018-04-29T12:07:40.299Z,960.30
2018-04-29T12:08:40.297Z,960.32
2018-04-29T12:09:40.298Z,960.26
2018-04-29T12:10:40.299Z,960.28
2018-04-29T12:11:40.299Z,960.24
2018-04-29T12:12:40.299Z,960.24
2018-04-29T12:13:40.294Z,960.21
2018-04-29T12:14:40.303Z,960.18
2018-04-29T12:15:40.294Z,960.15
2018-04-29T12:16:40.295Z,960.04
2018-04-29T12:17:40.295Z,960.02
2018-04-29T12:18:40.297Z,959.99
2018-04-29T12:19:40.294Z,959.98
2018-04-29T12:20:40.295Z,959.93
2018-04-29T12:21:40.296Z,959.90
2018-04-29T12:22:40.297Z,959.91
2018-04-29T12:23:40.295Z,959.85
2018-04-29T12:24:40.303Z,959.78
2018-04-29T12:25:40.296Z,959.72
2018-04-29T12:26:40.296Z,959.68
2018-04-29T12:27:40.296Z,959.68
2018-04-29T12:28:40.300Z,959.66
2018-04-29T12:29:40.296Z,959.65
2018-04-29T18:24:10.201Z,954.91